Time;durP1;ratioP1;P1;durP2;ratioP2;P2;SDS_P1;SDS_P2;PMS_P1;PMS_P2;Temp;Humidity;BMP_temperature;BMP_pressure;BME280_temperature;BME280_humidity;BME280_pressure;Samples;Min_cycle;Max_cycle;Signal;HPM_P1;HPM_P2
2023/07/22 00:00:33;;;;;;;13.30;11.57;;;;;;;17.25;86.61;101312.56;5198762;28;20164;-76
2023/07/22 00:03:04;;;;;;;12.95;11.40;;;;;;;17.21;86.36;101313.88;5178248;28;20126;-76
2023/07/22 00:05:35;;;;;;;13.25;11.10;;;;;;;17.19;86.50;101315.84;5198937;28;20056;-76
2023/07/22 00:08:07;;;;;;;13.30;11.88;;;;;;;17.13;86.91;101305.91;5182090;28;20395;-75
2023/07/22 00:10:42;;;;;;;13.02;11.57;;;;;;;17.27;87.56;101310.56;5183881;28;20110;-75
2023/07/22 00:13:14;;;;;;;13.55;12.15;;;;;;;17.09;87.39;101305.41;5201023;28;20168;-75
2023/07/22 00:15:45;;;;;;;12.60;11.30;;;;;;;17.12;87.95;101310.38;5200083;28;20436;-75
2023/07/22 00:18:16;;;;;;;12.77;11.38;;;;;;;17.12;88.79;101305.09;5198942;28;20488;-78
2023/07/22 00:20:48;;;;;;;14.52;11.82;;;;;;;17.13;88.66;101301.44;5204425;28;20057;-77
2023/07/22 00:23:19;;;;;;;14.55;12.43;;;;;;;17.10;87.92;101306.22;5202291;28;20036;-78
2023/07/22 00:25:52;;;;;;;13.05;10.95;;;;;;;17.10;88.83;101306.22;5196554;28;20044;-78
2023/07/22 00:28:23;;;;;;;12.83;11.07;;;;;;;17.05;88.54;101301.44;5201455;28;20084;-78
2023/07/22 00:30:54;;;;;;;16.02;12.23;;;;;;;17.09;89.69;101299.28;5202783;28;20030;-76
2023/07/22 00:33:26;;;;;;;12.48;11.05;;;;;;;17.08;89.13;101297.59;5201980;28;20030;-75
2023/07/22 00:35:58;;;;;;;12.55;10.75;;;;;;;17.04;90.01;101307.69;5202239;28;20105;-75
2023/07/22 00:38:29;;;;;;;12.55;10.50;;;;;;;17.05;89.24;101309.38;5200516;28;20036;-75
2023/07/22 00:41:00;;;;;;;12.02;10.80;;;;;;;16.98;90.43;101305.72;5200373;28;20044;-75
2023/07/22 00:43:31;;;;;;;11.82;10.57;;;;;;;16.93;90.52;101294.75;5200805;28;20026;-75
2023/07/22 00:46:03;;;;;;;11.77;10.57;;;;;;;16.92;90.36;101301.03;5201334;28;20424;-75
2023/07/22 00:48:34;;;;;;;14.02;11.25;;;;;;;16.94;91.28;101307.84;5202984;28;20570;-75
2023/07/22 00:51:06;;;;;;;12.95;10.32;;;;;;;16.91;91.22;101297.56;5202393;28;20301;-75
2023/07/22 00:53:37;;;;;;;12.65;10.45;;;;;;;16.96;91.88;101291.78;5204214;28;20033;-75
2023/07/22 00:56:10;;;;;;;11.65;9.98;;;;;;;16.96;92.33;101295.25;5205153;28;20053;-75
2023/07/22 00:58:42;;;;;;;13.20;10.50;;;;;;;16.91;93.06;101294.09;5204327;28;20029;-75
2023/07/22 01:01:13;;;;;;;12.75;10.88;;;;;;;16.91;93.56;101291.44;5206436;28;20030;-76
2023/07/22 01:03:46;;;;;;;11.70;10.57;;;;;;;16.92;93.74;101293.94;5206246;28;20034;-76
2023/07/22 01:06:18;;;;;;;11.85;10.52;;;;;;;16.92;93.84;101293.94;5200888;28;21022;-76
2023/07/22 01:08:49;;;;;;;11.20;9.98;;;;;;;16.85;94.83;101292.91;5204386;28;20026;-76
2023/07/22 01:11:20;;;;;;;12.98;10.95;;;;;;;16.89;94.56;101304.81;5205529;28;20040;-75
2023/07/22 01:13:57;;;;;;;12.93;11.32;;;;;;;16.89;94.38;101291.59;5201292;28;20030;-76
2023/07/22 01:16:29;;;;;;;14.88;11.55;;;;;;;16.81;94.74;101285.44;5202905;28;20519;-76
2023/07/22 01:19:01;;;;;;;13.13;10.82;;;;;;;16.85;96.23;101282.31;5201337;28;20093;-76
2023/07/22 01:21:32;;;;;;;16.75;11.25;;;;;;;16.84;95.63;101277.19;5198851;28;20038;-75
2023/07/22 01:24:04;;;;;;;14.68;10.95;;;;;;;16.80;96.41;101286.44;5205057;28;20104;-76
2023/07/22 01:26:36;;;;;;;16.40;12.05;;;;;;;16.82;96.84;101280.03;5202926;28;20584;-76
2023/07/22 01:29:07;;;;;;;11.93;10.63;;;;;;;16.80;95.73;101289.09;5203312;28;20534;-76
2023/07/22 01:31:39;;;;;;;12.20;10.90;;;;;;;16.83;95.76;101284.31;5183781;28;20492;-76
2023/07/22 01:34:12;;;;;;;15.30;10.95;;;;;;;16.81;96.56;101280.16;5205339;28;20030;-75
2023/07/22 01:36:45;;;;;;;13.52;10.70;;;;;;;16.80;96.22;101276.69;5204629;28;20376;-76
2023/07/22 01:39:21;;;;;;;13.02;11.63;;;;;;;16.73;95.25;101278.28;5197309;28;20062;-76
2023/07/22 01:41:53;;;;;;;13.02;10.88;;;;;;;16.73;95.76;101276.50;5199348;28;20068;-76
2023/07/22 01:44:24;;;;;;;15.05;11.38;;;;;;;16.73;94.88;101273.00;5201153;28;20113;-75
2023/07/22 01:46:55;;;;;;;12.95;11.40;;;;;;;16.71;95.79;101269.69;5185494;28;20033;-75
2023/07/22 01:49:27;;;;;;;14.25;11.25;;;;;;;16.70;94.59;101268.84;5202457;28;20042;-75
2023/07/22 01:51:58;;;;;;;12.38;10.93;;;;;;;16.74;95.69;101272.88;5194922;28;20030;-75
2023/07/22 01:54:29;;;;;;;13.95;11.48;;;;;;;16.73;94.66;101268.56;5207175;28;20064;-75
2023/07/22 01:57:00;;;;;;;13.80;11.60;;;;;;;16.67;94.53;101260.41;5199404;28;20053;-75
2023/07/22 01:59:32;;;;;;;13.30;11.05;;;;;;;16.69;95.38;101266.38;5202233;28;20026;-75
2023/07/22 02:02:04;;;;;;;12.88;10.15;;;;;;;16.72;95.70;101263.41;5194872;28;20027;-76
2023/07/22 02:04:35;;;;;;;14.33;10.97;;;;;;;16.71;95.54;101256.47;5202502;28;20048;-75
2023/07/22 02:07:06;;;;;;;13.27;10.70;;;;;;;16.65;95.95;101254.44;5198772;28;20042;-75
2023/07/22 02:09:38;;;;;;;12.27;10.57;;;;;;;16.68;96.21;101267.38;5198452;28;20061;-75
2023/07/22 02:12:10;;;;;;;13.23;11.25;;;;;;;16.68;96.91;101257.59;5200924;28;20034;-76
2023/07/22 02:14:41;;;;;;;12.20;10.70;;;;;;;16.62;96.41;101249.47;5197493;28;20461;-77
2023/07/22 02:17:12;;;;;;;12.68;11.32;;;;;;;16.66;97.24;101258.75;5199297;28;20776;-76
2023/07/22 02:19:44;;;;;;;12.85;10.32;;;;;;;16.60;97.65;101241.72;5203795;28;20061;-76
2023/07/22 02:22:15;;;;;;;12.70;11.32;;;;;;;16.59;97.14;101253.25;5198412;28;20034;-76
2023/07/22 02:24:46;;;;;;;14.35;11.88;;;;;;;16.68;97.31;101249.66;5198280;28;20464;-76
2023/07/22 02:27:18;;;;;;;13.45;11.00;;;;;;;16.53;97.77;101240.69;5199582;28;20018;-76
2023/07/22 02:29:49;;;;;;;12.13;10.82;;;;;;;16.62;98.00;101245.00;5199598;28;20034;-76
2023/07/22 02:32:20;;;;;;;14.23;11.38;;;;;;;16.61;98.74;101250.47;5203965;28;20038;-76
2023/07/22 02:34:51;;;;;;;13.98;11.35;;;;;;;16.51;99.93;101253.22;5204082;28;20034;-75
2023/07/22 02:37:23;;;;;;;13.15;11.60;;;;;;;16.44;100.00;101253.06;5201278;28;20574;-77
2023/07/22 02:39:55;;;;;;;12.82;10.77;;;;;;;16.38;100.00;101244.91;5199396;28;20030;-77
2023/07/22 02:42:26;;;;;;;14.63;11.05;;;;;;;16.40;100.00;101254.34;5198983;28;20391;-76
2023/07/22 02:44:57;;;;;;;12.35;10.98;;;;;;;16.40;100.00;101251.72;5201778;28;20060;-77
2023/07/22 02:47:28;;;;;;;14.27;11.38;;;;;;;16.39;100.00;101251.84;5202803;28;20037;-76
2023/07/22 02:50:00;;;;;;;13.00;11.02;;;;;;;16.25;100.00;101247.97;5196229;28;20099;-77
2023/07/22 02:52:32;;;;;;;14.63;11.30;;;;;;;16.23;100.00;101249.97;5201950;28;20133;-76
2023/07/22 02:55:14;;;;;;;16.45;11.55;;;;;;;16.40;100.00;101251.72;5202777;28;20443;-76
2023/07/22 02:57:47;;;;;;;15.52;11.05;;;;;;;16.20;100.00;101253.75;5203488;28;20045;-76
2023/07/22 03:00:25;;;;;;;13.65;11.20;;;;;;;16.14;100.00;101240.31;5197173;28;20472;-76
2023/07/22 03:03:00;;;;;;;12.98;10.73;;;;;;;16.04;100.00;101248.38;5203846;28;20439;-76
2023/07/22 03:05:32;;;;;;;13.10;10.73;;;;;;;15.97;100.00;101234.94;5194174;28;20517;-76
2023/07/22 03:08:03;;;;;;;12.95;11.30;;;;;;;15.98;100.00;101246.34;5196486;28;20034;-76
2023/07/22 03:10:35;;;;;;;13.00;11.43;;;;;;;15.99;100.00;101248.84;5197886;28;20122;-76
2023/07/22 03:13:07;;;;;;;12.05;10.65;;;;;;;15.94;100.00;101256.38;5203358;28;20121;-76
2023/07/22 03:15:39;;;;;;;14.80;11.73;;;;;;;15.91;100.00;101248.78;5196535;28;20057;-76
2023/07/22 03:18:11;;;;;;;12.70;10.38;;;;;;;15.82;100.00;101252.34;5196802;28;20396;-76
2023/07/22 03:20:42;;;;;;;12.60;10.87;;;;;;;15.85;100.00;101254.69;5179310;28;20121;-76
2023/07/22 03:23:13;;;;;;;13.75;10.73;;;;;;;15.80;100.00;101254.31;5203361;28;20060;-76
2023/07/22 03:25:45;;;;;;;13.98;11.23;;;;;;;15.74;100.00;101257.56;5180352;28;20034;-76
2023/07/22 03:28:17;;;;;;;14.00;12.40;;;;;;;15.70;100.00;101259.69;5199912;28;20037;-76
2023/07/22 03:30:48;;;;;;;15.13;11.73;;;;;;;15.66;100.00;101266.25;5196881;28;20057;-76
2023/07/22 03:33:19;;;;;;;13.30;11.18;;;;;;;15.66;100.00;101265.44;5199881;28;20057;-76
2023/07/22 03:35:50;;;;;;;12.63;11.02;;;;;;;15.52;100.00;101238.53;5198733;28;20696;-76
2023/07/22 03:38:22;;;;;;;12.80;10.68;;;;;;;15.63;100.00;101270.97;5199561;28;20028;-77
2023/07/22 03:40:53;;;;;;;13.25;11.35;;;;;;;15.62;100.00;101278.09;5194276;28;20496;-76
2023/07/22 03:43:24;;;;;;;16.02;11.50;;;;;;;15.58;100.00;101274.09;5201959;28;20022;-77
2023/07/22 03:45:56;;;;;;;13.55;11.07;;;;;;;15.57;100.00;101267.16;5203571;28;20026;-76
2023/07/22 03:48:27;;;;;;;13.07;10.50;;;;;;;15.51;100.00;101265.09;5201675;28;20053;-76
2023/07/22 03:50:58;;;;;;;12.65;11.02;;;;;;;15.46;100.00;101254.19;5198933;28;20037;-77
2023/07/22 03:53:29;;;;;;;12.63;10.85;;;;;;;15.48;100.00;101271.50;5201729;28;20038;-76
2023/07/22 03:56:01;;;;;;;14.60;10.32;;;;;;;15.48;100.00;101268.06;5203592;28;20480;-76
2023/07/22 03:58:32;;;;;;;13.20;10.60;;;;;;;15.47;100.00;101271.69;5202413;28;20030;-77
2023/07/22 04:01:03;;;;;;;13.18;11.13;;;;;;;15.43;100.00;101265.88;5202233;28;20503;-77
2023/07/22 04:03:35;;;;;;;12.93;10.95;;;;;;;15.43;100.00;101265.03;5188021;28;20480;-77
2023/07/22 04:06:06;;;;;;;13.07;10.73;;;;;;;15.35;100.00;101262.34;5202831;28;20026;-76
2023/07/22 04:08:37;;;;;;;12.60;10.43;;;;;;;15.35;100.00;101264.97;5198714;28;20395;-77
2023/07/22 04:11:08;;;;;;;13.00;10.77;;;;;;;15.31;100.00;101261.81;5198658;28;20456;-77
2023/07/22 04:13:40;;;;;;;13.43;10.38;;;;;;;15.37;100.00;101261.19;5202384;28;20575;-76
2023/07/22 04:16:11;;;;;;;13.10;10.35;;;;;;;15.40;100.00;101268.81;5201499;28;20046;-77
2023/07/22 04:18:42;;;;;;;14.43;11.68;;;;;;;15.39;100.00;101271.59;5200015;28;21019;-77
2023/07/22 04:21:14;;;;;;;11.93;10.07;;;;;;;15.31;100.00;101275.00;5203936;28;20451;-77
2023/07/22 04:23:45;;;;;;;13.63;10.90;;;;;;;15.29;100.00;101269.84;5203036;28;20038;-76
2023/07/22 04:26:16;;;;;;;12.98;10.77;;;;;;;15.24;100.00;101268.66;5205211;28;20651;-76
2023/07/22 04:28:47;;;;;;;15.75;10.57;;;;;;;15.26;100.00;101266.69;5199435;28;20389;-77
2023/07/22 04:31:19;;;;;;;12.23;10.43;;;;;;;15.28;100.00;101270.03;5203378;28;20033;-75
2023/07/22 04:33:50;;;;;;;14.75;11.52;;;;;;;15.29;100.00;101272.50;5202330;28;20108;-76
2023/07/22 04:36:21;;;;;;;13.55;10.57;;;;;;;15.27;100.00;101278.94;5202036;28;20026;-76
2023/07/22 04:38:52;;;;;;;13.48;10.85;;;;;;;15.29;100.00;101276.94;5203420;28;20018;-76
2023/07/22 04:41:24;;;;;;;13.23;10.25;;;;;;;15.29;100.00;101280.41;5179209;28;20030;-76
2023/07/22 04:43:55;;;;;;;12.52;11.02;;;;;;;15.31;100.00;101275.84;5205248;28;20034;-75
2023/07/22 04:46:26;;;;;;;12.25;10.73;;;;;;;15.36;100.00;101280.66;5196360;28;20028;-75
2023/07/22 04:48:58;;;;;;;13.40;10.73;;;;;;;15.41;100.00;101273.09;5200661;28;20050;-76
2023/07/22 04:51:31;;;;;;;14.05;11.52;;;;;;;15.44;100.00;101275.44;5202660;28;20050;-77
2023/07/22 04:54:03;;;;;;;12.75;11.40;;;;;;;15.48;100.00;101276.78;5204388;28;20034;-76
2023/07/22 04:56:34;;;;;;;11.85;10.20;;;;;;;15.55;100.00;101277.03;5198311;28;20026;-75
2023/07/22 04:59:05;;;;;;;12.75;11.27;;;;;;;15.64;100.00;101278.75;5199281;28;20034;-78
2023/07/22 05:01:37;;;;;;;13.80;11.05;;;;;;;15.65;100.00;101288.38;5195783;28;20034;-76
2023/07/22 05:04:08;;;;;;;14.90;10.52;;;;;;;15.71;100.00;101282.47;5200897;28;20041;-76
2023/07/22 05:06:39;;;;;;;14.55;10.90;;;;;;;15.71;100.00;101285.09;5194928;28;20030;-77
2023/07/22 05:09:11;;;;;;;13.23;11.25;;;;;;;15.72;100.00;101275.38;5195457;28;20444;-77
2023/07/22 05:11:42;;;;;;;15.50;11.10;;;;;;;15.73;100.00;101274.41;5198867;28;20403;-76
2023/07/22 05:14:13;;;;;;;15.10;10.65;;;;;;;15.85;100.00;101289.03;5202912;28;20487;-76
2023/07/22 05:16:44;;;;;;;13.38;10.43;;;;;;;15.92;100.00;101286.59;5201740;28;20113;-77
2023/07/22 05:19:16;;;;;;;15.40;10.43;;;;;;;15.91;100.00;101293.72;5198833;28;20561;-76
2023/07/22 05:21:47;;;;;;;13.80;11.07;;;;;;;15.97;100.00;101289.59;5199719;28;20084;-78
2023/07/22 05:24:18;;;;;;;14.38;10.50;;;;;;;15.97;100.00;101287.78;5202962;28;20376;-76
2023/07/22 05:26:49;;;;;;;12.73;10.25;;;;;;;16.01;100.00;101283.84;5203055;28;20432;-77
2023/07/22 05:29:21;;;;;;;11.98;10.18;;;;;;;16.02;100.00;101280.25;5204375;28;20491;-76
2023/07/22 05:31:52;;;;;;;14.63;10.55;;;;;;;16.08;100.00;101281.44;5197526;28;20579;-76
2023/07/22 05:34:23;;;;;;;12.15;9.77;;;;;;;16.10;100.00;101271.53;5204632;28;20506;-76
2023/07/22 05:36:54;;;;;;;12.48;10.05;;;;;;;16.25;100.00;101275.25;5200787;28;20456;-77
2023/07/22 05:39:26;;;;;;;12.48;10.85;;;;;;;16.35;100.00;101280.44;5201454;28;20398;-76
2023/07/22 05:41:57;;;;;;;13.93;10.43;;;;;;;16.41;100.00;101277.16;5200590;28;20022;-77
2023/07/22 05:44:28;;;;;;;16.20;10.32;;;;;;;16.45;100.00;101286.44;5198918;28;20068;-76
2023/07/22 05:47:00;;;;;;;11.90;10.07;;;;;;;16.50;100.00;101283.31;5200900;28;20058;-77
2023/07/22 05:49:31;;;;;;;12.13;10.03;;;;;;;16.58;100.00;101286.00;5191897;28;20050;-76
2023/07/22 05:52:02;;;;;;;12.15;10.55;;;;;;;16.53;100.00;101278.53;5193657;28;20303;-76
2023/07/22 05:54:34;;;;;;;19.88;10.52;;;;;;;16.60;100.00;101283.22;5197727;28;20038;-76
2023/07/22 05:57:05;;;;;;;12.95;10.38;;;;;;;16.57;100.00;101263.19;5198410;28;20028;-76
2023/07/22 05:59:37;;;;;;;13.32;10.77;;;;;;;16.68;100.00;101268.19;5200349;28;20048;-76
2023/07/22 06:02:09;;;;;;;14.48;10.77;;;;;;;16.79;100.00;101277.69;5192655;28;20030;-77
2023/07/22 06:04:40;;;;;;;14.15;10.13;;;;;;;16.89;100.00;101275.72;5195016;28;20444;-76
2023/07/22 06:07:11;;;;;;;13.40;10.43;;;;;;;16.97;100.00;101274.91;5201019;28;20029;-76
2023/07/22 06:09:42;;;;;;;11.93;10.27;;;;;;;17.07;100.00;101269.50;5182695;28;20026;-77
2023/07/22 06:12:14;;;;;;;15.90;11.52;;;;;;;17.18;100.00;101272.66;5199923;28;20029;-77
2023/07/22 06:14:45;;;;;;;15.35;11.82;;;;;;;17.24;100.00;101273.84;5199605;28;20450;-76
2023/07/22 06:17:17;;;;;;;14.38;10.85;;;;;;;17.30;100.00;101269.69;5199107;28;20022;-76
2023/07/22 06:19:48;;;;;;;13.82;10.65;;;;;;;17.37;100.00;101266.22;5199722;28;20492;-76
2023/07/22 06:22:19;;;;;;;13.07;11.38;;;;;;;17.45;100.00;101263.56;5198195;28;20136;-76
2023/07/22 06:24:50;;;;;;;13.75;11.27;;;;;;;17.55;100.00;101268.72;5200718;28;20080;-76
2023/07/22 06:27:22;;;;;;;15.77;11.63;;;;;;;17.51;100.00;101267.41;5204608;28;20026;-77
2023/07/22 06:29:53;;;;;;;14.18;11.02;;;;;;;17.64;100.00;101267.72;5198735;28;20120;-77
2023/07/22 06:32:24;;;;;;;14.75;11.13;;;;;;;17.78;100.00;101268.91;5184243;28;20543;-76
2023/07/22 06:34:58;;;;;;;16.88;11.95;;;;;;;17.85;100.00;101269.91;5198829;28;20038;-77
2023/07/22 06:37:30;;;;;;;14.93;11.10;;;;;;;17.78;100.00;101266.28;5200874;28;20018;-77
2023/07/22 06:40:02;;;;;;;15.38;12.15;;;;;;;17.85;100.00;101251.34;5202834;28;20043;-77
2023/07/22 06:42:33;;;;;;;16.92;11.88;;;;;;;18.04;100.00;101262.59;5198154;28;20026;-77
2023/07/22 06:45:05;;;;;;;16.42;12.30;;;;;;;18.07;100.00;101263.09;5203074;28;20026;-78
2023/07/22 06:48:05;;;;;;;16.47;11.73;;;;;;;18.35;100.00;101257.38;5198470;28;20026;-78
2023/07/22 06:50:36;;;;;;;16.20;11.98;;;;;;;18.14;100.00;101257.91;5199471;28;20081;-79
2023/07/22 06:53:07;;;;;;;16.15;11.52;;;;;;;18.21;100.00;101259.72;5198689;28;20120;-79
2023/07/22 06:55:38;;;;;;;16.52;13.25;;;;;;;18.27;100.00;101252.91;5180800;28;20052;-79
2023/07/22 06:58:10;;;;;;;16.60;12.13;;;;;;;18.39;100.00;101250.72;5201365;28;20554;-78
2023/07/22 07:00:41;;;;;;;15.57;11.98;;;;;;;18.52;100.00;101255.47;5198329;28;20510;-77
2023/07/22 07:03:12;;;;;;;18.35;12.13;;;;;;;18.62;100.00;101248.13;5202408;28;20410;-76
2023/07/22 07:05:44;;;;;;;17.33;12.15;;;;;;;18.69;100.00;101243.78;5203452;28;20490;-76
2023/07/22 07:08:15;;;;;;;14.00;11.07;;;;;;;18.80;100.00;101250.59;5198092;28;20030;-75
2023/07/22 07:10:46;;;;;;;14.90;11.27;;;;;;;18.82;100.00;101241.41;5196575;28;20026;-76
2023/07/22 07:13:17;;;;;;;17.08;11.70;;;;;;;18.87;100.00;101246.22;5180301;28;20033;-76
2023/07/22 07:15:49;;;;;;;19.80;12.15;;;;;;;18.93;100.00;101253.47;5198994;28;20372;-76
2023/07/22 07:18:20;;;;;;;14.43;11.60;;;;;;;18.91;100.00;101245.69;5199573;28;20285;-76
2023/07/22 07:20:51;;;;;;;19.23;11.85;;;;;;;19.01;100.00;101245.47;5192585;28;20433;-76
2023/07/22 07:23:22;;;;;;;15.98;10.85;;;;;;;19.07;100.00;101242.13;5179813;28;20038;-76
2023/07/22 07:25:54;;;;;;;18.10;11.70;;;;;;;19.09;100.00;101242.78;5196432;28;20073;-76
2023/07/22 07:28:25;;;;;;;13.65;11.00;;;;;;;19.18;100.00;101238.22;5202803;28;20037;-76
2023/07/22 07:30:56;;;;;;;16.60;10.77;;;;;;;19.17;100.00;101242.72;5198193;28;20030;-76
2023/07/22 07:33:28;;;;;;;16.23;10.40;;;;;;;19.29;100.00;101239.66;5202450;28;20066;-76
2023/07/22 07:36:00;;;;;;;15.48;11.07;;;;;;;19.40;100.00;101247.22;5196888;28;20027;-76
2023/07/22 07:38:31;;;;;;;21.17;10.98;;;;;;;19.43;100.00;101247.69;5193342;28;20042;-76
2023/07/22 07:41:08;;;;;;;15.00;10.45;;;;;;;19.50;100.00;101238.97;5189417;28;20030;-76
2023/07/22 07:43:41;;;;;;;15.23;10.05;;;;;;;19.52;100.00;101244.94;5192468;28;20026;-76
2023/07/22 07:46:21;;;;;;;15.45;9.90;;;;;;;19.55;100.00;101250.72;5198927;28;20062;-76
2023/07/22 07:48:53;;;;;;;13.85;9.20;;;;;;;19.71;100.00;101256.94;5199340;28;20027;-76
2023/07/22 07:51:29;;;;;;;13.77;10.45;;;;;;;19.70;98.09;101242.81;5194688;28;20330;-76
2023/07/22 07:54:00;;;;;;;13.20;10.18;;;;;;;19.95;99.76;101253.22;5196776;28;20026;-76
2023/07/22 07:56:31;;;;;;;14.32;9.65;;;;;;;20.08;96.69;101254.25;5197193;28;20475;-76
2023/07/22 07:59:04;;;;;;;17.27;9.87;;;;;;;20.11;95.02;101258.34;5200028;28;20032;-76
2023/07/22 08:01:37;;;;;;;13.70;10.07;;;;;;;20.09;94.64;101252.41;5192180;28;20042;-76
2023/07/22 08:04:08;;;;;;;;;;;;;;;20.81;90.45;101259.72;5197023;28;20045;-76
2023/07/22 08:06:39;;;;;;;13.85;9.55;;;;;;;20.25;94.36;101246.09;5194985;28;20012;-76
2023/07/22 08:09:16;;;;;;;11.40;8.77;;;;;;;20.31;93.42;101251.50;5202632;28;20041;-76
2023/07/22 08:11:47;;;;;;;17.05;9.30;;;;;;;20.29;90.63;101256.16;5192529;28;20030;-76
2023/07/22 08:14:18;;;;;;;14.38;9.60;;;;;;;20.38;90.02;101255.09;5200794;28;20859;-76
2023/07/22 08:16:49;;;;;;;15.40;9.70;;;;;;;20.42;89.59;101256.34;5200273;28;20073;-76
2023/07/22 08:19:21;;;;;;;12.38;8.77;;;;;;;20.56;87.94;101252.03;5199798;28;20111;-76
2023/07/22 08:21:52;;;;;;;13.03;9.30;;;;;;;20.46;85.77;101254.16;5195865;28;20022;-76
2023/07/22 08:24:23;;;;;;;12.07;8.53;;;;;;;20.36;86.26;101248.28;5201713;28;20109;-76
2023/07/22 08:26:54;;;;;;;12.60;9.07;;;;;;;20.30;85.05;101257.00;5199071;28;20388;-76
2023/07/22 08:29:26;;;;;;;11.77;8.13;;;;;;;20.41;86.95;101260.00;5201969;28;20037;-76
2023/07/22 08:31:57;;;;;;;14.23;8.80;;;;;;;20.53;87.57;101260.44;5201418;28;20096;-76
2023/07/22 08:34:28;;;;;;;10.63;8.57;;;;;;;20.64;85.58;101264.41;5200949;28;20030;-76
2023/07/22 08:36:59;;;;;;;12.83;8.63;;;;;;;20.89;85.17;101263.09;5198651;28;20034;-76
2023/07/22 08:39:31;;;;;;;10.30;8.03;;;;;;;21.13;83.67;101250.44;5200743;28;20451;-76
2023/07/22 08:42:04;;;;;;;12.43;8.30;;;;;;;21.31;78.01;101260.66;5201162;28;20489;-76
2023/07/22 08:44:38;;;;;;;11.13;7.07;;;;;;;21.54;76.74;101253.31;5199774;28;20427;-76
2023/07/22 08:47:15;;;;;;;9.48;6.85;;;;;;;21.65;77.88;101256.47;5202480;28;20121;-76
2023/07/22 08:49:52;;;;;;;10.60;6.57;;;;;;;21.68;73.10;101261.44;5200516;28;20080;-76
2023/07/22 08:52:23;;;;;;;9.10;6.70;;;;;;;21.74;71.75;101257.97;5200240;28;20415;-76
2023/07/22 08:54:55;;;;;;;9.33;6.47;;;;;;;22.04;73.22;101259.41;5202987;28;20602;-76
2023/07/22 08:57:29;;;;;;;9.20;6.37;;;;;;;22.37;69.92;101258.00;5200692;28;20034;-76
2023/07/22 09:00:01;;;;;;;10.68;6.82;;;;;;;22.27;69.13;101255.69;5196989;28;20124;-76
2023/07/22 09:02:35;;;;;;;10.77;7.05;;;;;;;22.41;67.62;101264.59;5205616;28;20034;-76
2023/07/22 09:05:09;;;;;;;11.13;6.82;;;;;;;22.26;65.99;101268.22;5202930;28;20422;-76
2023/07/22 09:07:40;;;;;;;9.95;6.32;;;;;;;22.14;64.17;101255.63;5198681;28;20331;-76
2023/07/22 09:10:13;;;;;;;10.10;6.00;;;;;;;22.37;66.43;101263.34;5202417;28;20083;-76
2023/07/22 09:12:44;;;;;;;7.35;5.30;;;;;;;22.36;62.65;101261.72;5195761;28;20287;-76
2023/07/22 09:15:16;;;;;;;8.30;5.17;;;;;;;22.39;63.35;101262.13;5200479;28;20036;-76
2023/07/22 09:17:47;;;;;;;7.70;4.67;;;;;;;22.29;62.16;101243.78;5197310;28;20028;-76
2023/07/22 09:20:20;;;;;;;10.83;5.30;;;;;;;22.45;61.08;101244.47;5195558;28;21746;-76
2023/07/22 09:22:51;;;;;;;;;;;;;;;23.43;62.69;101248.47;5194311;28;20080;-76
2023/07/22 09:25:25;;;;;;;6.70;5.00;;;;;;;22.80;61.13;101243.38;5195818;28;20275;-76
2023/07/22 09:27:59;;;;;;;6.38;4.93;;;;;;;22.78;59.21;101249.97;5202331;28;20620;-76
2023/07/22 09:30:36;;;;;;;8.25;4.80;;;;;;;22.80;59.82;101251.38;5197381;28;20062;-76
2023/07/22 09:33:20;;;;;;;9.63;5.50;;;;;;;22.93;57.77;101250.66;5193439;28;20025;-76
2023/07/22 09:35:51;;;;;;;9.48;4.50;;;;;;;22.75;59.32;101253.84;5197755;28;20026;-76
2023/07/22 09:38:24;;;;;;;6.77;4.50;;;;;;;22.75;58.62;101255.69;5198392;28;20998;-76
2023/07/22 09:40:55;;;;;;;9.23;5.45;;;;;;;22.82;59.16;101248.53;5196350;28;20113;-76
2023/07/22 09:43:26;;;;;;;7.33;4.60;;;;;;;22.91;59.39;101242.00;5197998;28;20450;-76
2023/07/22 09:46:06;;;;;;;7.00;4.40;;;;;;;23.07;59.74;101238.16;5199771;28;20377;-76
2023/07/22 09:48:42;;;;;;;7.88;4.93;;;;;;;22.85;61.44;101241.97;5191169;28;20037;-76
2023/07/22 09:51:16;;;;;;;7.72;4.90;;;;;;;22.81;63.47;101252.25;5195257;28;20042;-77
2023/07/22 09:53:58;;;;;;;7.80;4.50;;;;;;;22.77;63.05;101248.31;5199668;28;20038;-77
2023/07/22 09:56:30;;;;;;;6.32;4.18;;;;;;;22.72;62.20;101248.09;5200751;28;20025;-80
2023/07/22 09:59:07;;;;;;;11.07;4.47;;;;;;;22.83;60.99;101234.97;5196732;28;20100;-76
2023/07/22 10:01:40;;;;;;;8.00;4.45;;;;;;;22.68;59.61;101238.81;5195996;28;20037;-75
2023/07/22 10:04:15;;;;;;;7.90;4.00;;;;;;;22.80;59.42;101240.69;5200085;28;20476;-74
2023/07/22 10:06:46;;;;;;;6.13;3.90;;;;;;;22.90;60.80;101239.50;5184199;28;20062;-76
2023/07/22 10:09:20;;;;;;;7.97;4.03;;;;;;;22.93;61.38;101241.81;5203862;28;20502;-76
2023/07/22 10:11:53;;;;;;;6.63;3.88;;;;;;;22.92;61.62;101240.16;5193417;28;20058;-76
2023/07/22 10:14:25;;;;;;;7.83;4.37;;;;;;;23.08;61.86;101244.31;5195731;28;20034;-76
2023/07/22 10:16:56;;;;;;;5.18;3.70;;;;;;;23.02;58.38;101245.94;5199347;28;20419;-76
2023/07/22 10:19:27;;;;;;;6.87;2.80;;;;;;;;;;5193583;28;20211;-76
2023/07/22 10:21:59;;;;;;;7.33;3.87;;;;;;;22.90;56.77;101250.19;5197289;28;20042;-76
2023/07/22 10:24:32;;;;;;;6.63;2.73;;;;;;;22.95;55.03;101243.25;5193758;28;20037;-76
2023/07/22 10:27:06;;;;;;;7.05;3.08;;;;;;;23.20;55.45;101240.84;5194435;28;20387;-76
2023/07/22 10:29:38;;;;;;;5.93;2.83;;;;;;;23.22;52.79;101245.97;5196168;28;20022;-76
2023/07/22 10:32:10;;;;;;;4.22;2.10;;;;;;;23.29;51.22;101246.81;5197292;28;20034;-76
2023/07/22 10:34:41;;;;;;;5.77;2.40;;;;;;;23.21;50.95;101236.31;5191058;28;20033;-77
2023/07/22 10:37:13;;;;;;;8.07;2.47;;;;;;;23.32;51.52;101251.75;5183752;28;20472;-77
2023/07/22 10:39:44;;;;;;;6.03;2.43;;;;;;;23.36;50.83;101236.13;5190323;28;20717;-77
2023/07/22 10:42:25;;;;;;;5.17;2.43;;;;;;;23.64;49.48;101239.44;5195085;28;20065;-77
2023/07/22 10:45:00;;;;;;;5.30;2.70;;;;;;;23.72;50.12;101235.75;5178133;28;20041;-77
2023/07/22 10:47:33;;;;;;;5.30;2.55;;;;;;;23.78;48.79;101232.22;5197317;28;20105;-77
2023/07/22 10:50:09;;;;;;;5.25;2.00;;;;;;;24.05;48.41;101230.31;5197089;28;20455;-78
2023/07/22 10:52:44;;;;;;;3.72;2.13;;;;;;;24.22;48.01;101228.03;5192242;28;20030;-77
2023/07/22 10:55:19;;;;;;;5.03;2.15;;;;;;;24.04;46.51;101224.13;5194163;28;20037;-77
2023/07/22 10:57:52;;;;;;;4.47;2.05;;;;;;;24.04;46.54;101221.47;5190897;28;20134;-77
2023/07/22 11:00:29;;;;;;;4.25;1.90;;;;;;;24.16;46.33;101224.31;5202760;28;20470;-77
2023/07/22 11:03:13;;;;;;;5.43;2.20;;;;;;;24.42;48.10;101231.47;5197747;28;20729;-77
2023/07/22 11:05:55;;;;;;;3.50;2.17;;;;;;;24.32;46.54;101233.75;5189699;28;20038;-78
2023/07/22 11:08:39;;;;;;;4.85;2.05;;;;;;;24.25;47.44;101223.06;5197132;28;20368;-78
2023/07/22 11:11:11;;;;;;;4.63;1.85;;;;;;;23.90;45.88;101227.88;5196024;28;20592;-77
2023/07/22 11:13:42;;;;;;;5.00;2.00;;;;;;;23.92;45.88;101227.69;5198472;28;20783;-77
2023/07/22 11:16:14;;;;;;;5.63;1.97;;;;;;;23.90;44.50;101225.19;5193612;28;20030;-77
2023/07/22 11:18:45;;;;;;;5.30;2.23;;;;;;;24.05;44.53;101222.28;5192796;28;20045;-77
2023/07/22 11:21:16;;;;;;;4.17;1.87;;;;;;;24.02;44.64;101212.03;5203066;28;20025;-77
2023/07/22 11:23:48;;;;;;;8.30;2.43;;;;;;;24.44;45.26;101215.19;5198293;28;20050;-77
2023/07/22 11:26:19;;;;;;;4.63;1.80;;;;;;;24.31;43.23;101204.50;5192064;28;20072;-77
2023/07/22 11:28:52;;;;;;;3.10;1.50;;;;;;;24.28;44.13;101203.91;5202318;28;20033;-77
2023/07/22 11:31:31;;;;;;;3.67;2.03;;;;;;;24.19;45.19;101202.47;5194494;28;20453;-77
2023/07/22 11:34:05;;;;;;;4.95;2.38;;;;;;;24.07;44.43;101198.81;5192868;28;20045;-77